sensor_id;sensor_type;location;lat;lon;timestamp;P1;durP1;ratioP1;P2;durP2;ratioP2
15595;SDS011;7898;48.658;9.068;2024-03-25T00:01:03;5.37;;;2.27;;
15595;SDS011;7898;48.658;9.068;2024-03-25T00:03:30;7.67;;;2.50;;
15595;SDS011;7898;48.658;9.068;2024-03-25T00:05:56;4.00;;;2.10;;
15595;SDS011;7898;48.658;9.068;2024-03-25T00:08:23;3.30;;;2.20;;
15595;SDS011;7898;48.658;9.068;2024-03-25T00:10:49;2.87;;;2.20;;
15595;SDS011;7898;48.658;9.068;2024-03-25T00:13:16;3.87;;;2.27;;
15595;SDS011;7898;48.658;9.068;2024-03-25T00:15:42;6.27;;;2.67;;
15595;SDS011;7898;48.658;9.068;2024-03-25T00:18:10;3.40;;;2.20;;
15595;SDS011;7898;48.658;9.068;2024-03-25T00:20:36;5.50;;;2.60;;
15595;SDS011;7898;48.658;9.068;2024-03-25T00:23:04;5.40;;;2.77;;
15595;SDS011;7898;48.658;9.068;2024-03-25T00:25:30;4.73;;;2.67;;
15595;SDS011;7898;48.658;9.068;2024-03-25T00:27:57;4.83;;;2.53;;
15595;SDS011;7898;48.658;9.068;2024-03-25T00:30:22;6.43;;;2.20;;
15595;SDS011;7898;48.658;9.068;2024-03-25T00:32:50;5.27;;;2.33;;
15595;SDS011;7898;48.658;9.068;2024-03-25T00:35:17;5.60;;;2.47;;
15595;SDS011;7898;48.658;9.068;2024-03-25T00:37:44;3.70;;;2.43;;
15595;SDS011;7898;48.658;9.068;2024-03-25T00:40:10;5.73;;;2.03;;
15595;SDS011;7898;48.658;9.068;2024-03-25T00:42:37;4.50;;;2.87;;
15595;SDS011;7898;48.658;9.068;2024-03-25T00:45:03;5.77;;;2.87;;
15595;SDS011;7898;48.658;9.068;2024-03-25T00:47:32;3.90;;;2.50;;
15595;SDS011;7898;48.658;9.068;2024-03-25T00:49:58;4.77;;;2.30;;
15595;SDS011;7898;48.658;9.068;2024-03-25T00:52:26;5.00;;;2.70;;
15595;SDS011;7898;48.658;9.068;2024-03-25T00:54:52;5.03;;;2.47;;
15595;SDS011;7898;48.658;9.068;2024-03-25T00:57:19;5.13;;;2.70;;
15595;SDS011;7898;48.658;9.068;2024-03-25T00:59:45;3.27;;;2.40;;
15595;SDS011;7898;48.658;9.068;2024-03-25T01:02:11;3.93;;;2.40;;
15595;SDS011;7898;48.658;9.068;2024-03-25T01:04:37;5.10;;;2.70;;
15595;SDS011;7898;48.658;9.068;2024-03-25T01:07:04;3.13;;;2.33;;
15595;SDS011;7898;48.658;9.068;2024-03-25T01:09:31;4.93;;;2.40;;
15595;SDS011;7898;48.658;9.068;2024-03-25T01:11:58;4.83;;;2.30;;
15595;SDS011;7898;48.658;9.068;2024-03-25T01:14:24;3.53;;;2.77;;
15595;SDS011;7898;48.658;9.068;2024-03-25T01:16:51;4.97;;;2.23;;
15595;SDS011;7898;48.658;9.068;2024-03-25T01:19:17;5.57;;;2.23;;
15595;SDS011;7898;48.658;9.068;2024-03-25T01:21:46;5.20;;;2.47;;
15595;SDS011;7898;48.658;9.068;2024-03-25T01:24:11;5.67;;;2.80;;
15595;SDS011;7898;48.658;9.068;2024-03-25T01:26:41;5.40;;;3.27;;
15595;SDS011;7898;48.658;9.068;2024-03-25T01:29:07;7.50;;;2.87;;
15595;SDS011;7898;48.658;9.068;2024-03-25T01:31:33;5.73;;;3.03;;
15595;SDS011;7898;48.658;9.068;2024-03-25T01:33:59;3.47;;;2.83;;
15595;SDS011;7898;48.658;9.068;2024-03-25T01:36:26;4.80;;;2.70;;
15595;SDS011;7898;48.658;9.068;2024-03-25T01:38:52;6.03;;;2.90;;
15595;SDS011;7898;48.658;9.068;2024-03-25T01:41:20;5.00;;;2.90;;
15595;SDS011;7898;48.658;9.068;2024-03-25T01:43:49;7.23;;;3.53;;
15595;SDS011;7898;48.658;9.068;2024-03-25T01:46:16;4.43;;;2.67;;
15595;SDS011;7898;48.658;9.068;2024-03-25T01:48:43;5.63;;;2.80;;
15595;SDS011;7898;48.658;9.068;2024-03-25T01:51:11;3.23;;;2.43;;
15595;SDS011;7898;48.658;9.068;2024-03-25T01:53:39;9.20;;;2.73;;
15595;SDS011;7898;48.658;9.068;2024-03-25T01:56:06;8.33;;;2.90;;
15595;SDS011;7898;48.658;9.068;2024-03-25T01:58:33;5.43;;;2.90;;
15595;SDS011;7898;48.658;9.068;2024-03-25T02:01:03;4.63;;;2.80;;
15595;SDS011;7898;48.658;9.068;2024-03-25T02:03:29;3.50;;;2.67;;
15595;SDS011;7898;48.658;9.068;2024-03-25T02:05:57;7.73;;;3.40;;
15595;SDS011;7898;48.658;9.068;2024-03-25T02:08:28;5.80;;;2.93;;
15595;SDS011;7898;48.658;9.068;2024-03-25T02:10:56;7.60;;;3.43;;
15595;SDS011;7898;48.658;9.068;2024-03-25T02:13:24;5.50;;;3.20;;
15595;SDS011;7898;48.658;9.068;2024-03-25T02:15:50;5.77;;;3.57;;
15595;SDS011;7898;48.658;9.068;2024-03-25T02:18:19;6.67;;;3.20;;
15595;SDS011;7898;48.658;9.068;2024-03-25T02:20:46;5.20;;;3.37;;
15595;SDS011;7898;48.658;9.068;2024-03-25T02:23:13;7.23;;;3.43;;
15595;SDS011;7898;48.658;9.068;2024-03-25T02:25:40;5.43;;;2.87;;
15595;SDS011;7898;48.658;9.068;2024-03-25T02:28:09;4.00;;;2.97;;
15595;SDS011;7898;48.658;9.068;2024-03-25T02:30:35;4.20;;;3.23;;
15595;SDS011;7898;48.658;9.068;2024-03-25T02:33:03;5.63;;;3.23;;
15595;SDS011;7898;48.658;9.068;2024-03-25T02:35:29;7.13;;;3.13;;
15595;SDS011;7898;48.658;9.068;2024-03-25T02:37:56;5.30;;;3.13;;
15595;SDS011;7898;48.658;9.068;2024-03-25T02:40:23;4.53;;;3.03;;
15595;SDS011;7898;48.658;9.068;2024-03-25T02:42:51;5.37;;;3.37;;
15595;SDS011;7898;48.658;9.068;2024-03-25T02:45:18;5.63;;;3.80;;
15595;SDS011;7898;48.658;9.068;2024-03-25T02:47:45;7.13;;;3.00;;
15595;SDS011;7898;48.658;9.068;2024-03-25T02:50:11;4.47;;;3.23;;
15595;SDS011;7898;48.658;9.068;2024-03-25T02:52:38;9.80;;;3.60;;
15595;SDS011;7898;48.658;9.068;2024-03-25T02:55:04;7.93;;;3.67;;
15595;SDS011;7898;48.658;9.068;2024-03-25T02:57:32;6.07;;;3.83;;
15595;SDS011;7898;48.658;9.068;2024-03-25T02:59:57;5.33;;;3.33;;
15595;SDS011;7898;48.658;9.068;2024-03-25T03:02:26;9.60;;;3.60;;
15595;SDS011;7898;48.658;9.068;2024-03-25T03:04:52;4.27;;;3.10;;
15595;SDS011;7898;48.658;9.068;2024-03-25T03:07:19;4.73;;;3.87;;
15595;SDS011;7898;48.658;9.068;2024-03-25T03:09:45;6.47;;;3.60;;
15595;SDS011;7898;48.658;9.068;2024-03-25T03:12:11;5.83;;;3.47;;
15595;SDS011;7898;48.658;9.068;2024-03-25T03:14:37;4.20;;;3.03;;
15595;SDS011;7898;48.658;9.068;2024-03-25T03:17:04;4.27;;;3.30;;
15595;SDS011;7898;48.658;9.068;2024-03-25T03:19:32;6.43;;;3.17;;
15595;SDS011;7898;48.658;9.068;2024-03-25T03:21:59;4.17;;;3.00;;
15595;SDS011;7898;48.658;9.068;2024-03-25T03:24:25;7.00;;;3.07;;
15595;SDS011;7898;48.658;9.068;2024-03-25T03:26:51;6.67;;;3.43;;
15595;SDS011;7898;48.658;9.068;2024-03-25T03:29:17;4.67;;;3.13;;
15595;SDS011;7898;48.658;9.068;2024-03-25T03:31:44;4.17;;;3.13;;
15595;SDS011;7898;48.658;9.068;2024-03-25T03:34:10;6.27;;;2.73;;
15595;SDS011;7898;48.658;9.068;2024-03-25T03:36:38;5.27;;;2.80;;
15595;SDS011;7898;48.658;9.068;2024-03-25T03:39:05;6.67;;;2.90;;
15595;SDS011;7898;48.658;9.068;2024-03-25T03:41:34;4.13;;;2.60;;
15595;SDS011;7898;48.658;9.068;2024-03-25T03:44:00;4.47;;;2.70;;
15595;SDS011;7898;48.658;9.068;2024-03-25T03:46:26;4.50;;;3.13;;
15595;SDS011;7898;48.658;9.068;2024-03-25T03:48:52;4.20;;;2.90;;
15595;SDS011;7898;48.658;9.068;2024-03-25T03:51:19;5.70;;;2.93;;
15595;SDS011;7898;48.658;9.068;2024-03-25T03:53:46;5.30;;;2.93;;
15595;SDS011;7898;48.658;9.068;2024-03-25T03:56:13;4.53;;;3.33;;
15595;SDS011;7898;48.658;9.068;2024-03-25T03:58:39;7.63;;;3.23;;
15595;SDS011;7898;48.658;9.068;2024-03-25T04:01:13;3.90;;;3.00;;
15595;SDS011;7898;48.658;9.068;2024-03-25T04:03:39;5.70;;;3.20;;
15595;SDS011;7898;48.658;9.068;2024-03-25T04:06:10;5.90;;;3.10;;
15595;SDS011;7898;48.658;9.068;2024-03-25T04:08:36;4.50;;;2.90;;
15595;SDS011;7898;48.658;9.068;2024-03-25T04:11:05;5.47;;;3.10;;
15595;SDS011;7898;48.658;9.068;2024-03-25T04:13:31;5.83;;;3.43;;
15595;SDS011;7898;48.658;9.068;2024-03-25T04:16:02;4.40;;;2.73;;
15595;SDS011;7898;48.658;9.068;2024-03-25T04:18:29;6.17;;;3.20;;
15595;SDS011;7898;48.658;9.068;2024-03-25T04:20:57;5.23;;;2.87;;
15595;SDS011;7898;48.658;9.068;2024-03-25T04:23:23;7.90;;;3.03;;
15595;SDS011;7898;48.658;9.068;2024-03-25T04:25:50;5.90;;;2.67;;
15595;SDS011;7898;48.658;9.068;2024-03-25T04:28:18;7.53;;;3.37;;
15595;SDS011;7898;48.658;9.068;2024-03-25T04:30:50;6.60;;;2.83;;
15595;SDS011;7898;48.658;9.068;2024-03-25T04:33:16;6.73;;;3.47;;
15595;SDS011;7898;48.658;9.068;2024-03-25T04:35:43;6.23;;;2.90;;
15595;SDS011;7898;48.658;9.068;2024-03-25T04:38:10;7.93;;;4.70;;
15595;SDS011;7898;48.658;9.068;2024-03-25T04:40:36;5.80;;;3.30;;
15595;SDS011;7898;48.658;9.068;2024-03-25T04:43:02;8.27;;;3.47;;
15595;SDS011;7898;48.658;9.068;2024-03-25T04:45:29;8.40;;;3.07;;
15595;SDS011;7898;48.658;9.068;2024-03-25T04:47:55;6.47;;;3.40;;
15595;SDS011;7898;48.658;9.068;2024-03-25T04:50:21;6.27;;;3.40;;
15595;SDS011;7898;48.658;9.068;2024-03-25T04:52:47;5.50;;;3.20;;
15595;SDS011;7898;48.658;9.068;2024-03-25T04:55:13;4.30;;;3.07;;
15595;SDS011;7898;48.658;9.068;2024-03-25T04:57:40;11.03;;;3.47;;
15595;SDS011;7898;48.658;9.068;2024-03-25T05:00:06;4.67;;;3.27;;
15595;SDS011;7898;48.658;9.068;2024-03-25T05:02:34;7.87;;;3.70;;
15595;SDS011;7898;48.658;9.068;2024-03-25T05:05:00;8.63;;;3.40;;
15595;SDS011;7898;48.658;9.068;2024-03-25T05:07:26;7.67;;;3.67;;
15595;SDS011;7898;48.658;9.068;2024-03-25T05:09:52;7.87;;;3.40;;
15595;SDS011;7898;48.658;9.068;2024-03-25T05:12:18;5.87;;;3.40;;
15595;SDS011;7898;48.658;9.068;2024-03-25T05:14:44;6.53;;;3.07;;
15595;SDS011;7898;48.658;9.068;2024-03-25T05:17:10;8.23;;;3.47;;
15595;SDS011;7898;48.658;9.068;2024-03-25T05:19:37;8.20;;;2.97;;
15595;SDS011;7898;48.658;9.068;2024-03-25T05:22:03;5.77;;;3.43;;
15595;SDS011;7898;48.658;9.068;2024-03-25T05:24:29;5.00;;;3.30;;
15595;SDS011;7898;48.658;9.068;2024-03-25T05:26:55;5.73;;;3.37;;
15595;SDS011;7898;48.658;9.068;2024-03-25T05:29:20;7.33;;;4.40;;
15595;SDS011;7898;48.658;9.068;2024-03-25T05:31:55;11.80;;;5.80;;
15595;SDS011;7898;48.658;9.068;2024-03-25T05:34:23;18.00;;;7.93;;
15595;SDS011;7898;48.658;9.068;2024-03-25T05:36:50;5.80;;;3.83;;
15595;SDS011;7898;48.658;9.068;2024-03-25T05:39:16;7.17;;;4.00;;
15595;SDS011;7898;48.658;9.068;2024-03-25T05:41:42;6.17;;;3.87;;
15595;SDS011;7898;48.658;9.068;2024-03-25T05:44:08;7.90;;;3.83;;
15595;SDS011;7898;48.658;9.068;2024-03-25T05:46:34;5.57;;;3.67;;
15595;SDS011;7898;48.658;9.068;2024-03-25T05:49:03;7.17;;;3.73;;
15595;SDS011;7898;48.658;9.068;2024-03-25T05:51:29;6.37;;;3.77;;
15595;SDS011;7898;48.658;9.068;2024-03-25T05:53:57;5.73;;;3.70;;
15595;SDS011;7898;48.658;9.068;2024-03-25T05:56:23;6.57;;;3.77;;
15595;SDS011;7898;48.658;9.068;2024-03-25T05:58:49;7.67;;;4.70;;
15595;SDS011;7898;48.658;9.068;2024-03-25T06:01:15;12.97;;;6.33;;
15595;SDS011;7898;48.658;9.068;2024-03-25T06:03:41;7.53;;;4.60;;
15595;SDS011;7898;48.658;9.068;2024-03-25T06:06:06;7.27;;;4.80;;
15595;SDS011;7898;48.658;9.068;2024-03-25T06:08:32;9.73;;;5.57;;
15595;SDS011;7898;48.658;9.068;2024-03-25T06:11:03;7.17;;;4.17;;
15595;SDS011;7898;48.658;9.068;2024-03-25T06:13:29;10.13;;;5.03;;
15595;SDS011;7898;48.658;9.068;2024-03-25T06:15:55;6.03;;;4.20;;
15595;SDS011;7898;48.658;9.068;2024-03-25T06:18:21;7.13;;;4.80;;
15595;SDS011;7898;48.658;9.068;2024-03-25T06:20:47;10.57;;;4.30;;
15595;SDS011;7898;48.658;9.068;2024-03-25T06:23:21;10.17;;;4.47;;
15595;SDS011;7898;48.658;9.068;2024-03-25T06:25:48;8.53;;;5.30;;
15595;SDS011;7898;48.658;9.068;2024-03-25T06:28:16;7.97;;;5.07;;
15595;SDS011;7898;48.658;9.068;2024-03-25T06:30:42;9.13;;;4.33;;
15595;SDS011;7898;48.658;9.068;2024-03-25T06:33:28;8.10;;;4.97;;
15595;SDS011;7898;48.658;9.068;2024-03-25T06:36:12;10.10;;;5.17;;
15595;SDS011;7898;48.658;9.068;2024-03-25T06:38:38;9.67;;;4.80;;
15595;SDS011;7898;48.658;9.068;2024-03-25T06:41:04;7.67;;;5.03;;
15595;SDS011;7898;48.658;9.068;2024-03-25T06:43:31;12.47;;;4.73;;
15595;SDS011;7898;48.658;9.068;2024-03-25T06:45:57;8.30;;;4.20;;
15595;SDS011;7898;48.658;9.068;2024-03-25T06:48:23;6.13;;;3.53;;
15595;SDS011;7898;48.658;9.068;2024-03-25T06:50:52;6.30;;;4.23;;
15595;SDS011;7898;48.658;9.068;2024-03-25T06:53:19;6.97;;;4.73;;
15595;SDS011;7898;48.658;9.068;2024-03-25T06:55:50;9.90;;;4.97;;
15595;SDS011;7898;48.658;9.068;2024-03-25T06:58:17;7.10;;;4.33;;
15595;SDS011;7898;48.658;9.068;2024-03-25T07:00:45;7.77;;;3.93;;
15595;SDS011;7898;48.658;9.068;2024-03-25T07:03:12;7.57;;;4.30;;
15595;SDS011;7898;48.658;9.068;2024-03-25T07:05:38;6.00;;;3.93;;
15595;SDS011;7898;48.658;9.068;2024-03-25T07:08:04;8.50;;;4.03;;
15595;SDS011;7898;48.658;9.068;2024-03-25T07:10:30;7.17;;;3.53;;
15595;SDS011;7898;48.658;9.068;2024-03-25T07:12:56;7.13;;;4.23;;
15595;SDS011;7898;48.658;9.068;2024-03-25T07:15:22;7.33;;;3.63;;
15595;SDS011;7898;48.658;9.068;2024-03-25T07:17:49;6.83;;;3.50;;
15595;SDS011;7898;48.658;9.068;2024-03-25T07:20:15;6.97;;;3.30;;
15595;SDS011;7898;48.658;9.068;2024-03-25T07:22:41;9.07;;;3.93;;
15595;SDS011;7898;48.658;9.068;2024-03-25T07:25:07;7.03;;;4.00;;
15595;SDS011;7898;48.658;9.068;2024-03-25T07:27:33;5.93;;;4.03;;
15595;SDS011;7898;48.658;9.068;2024-03-25T07:29:59;6.87;;;4.30;;
15595;SDS011;7898;48.658;9.068;2024-03-25T07:32:25;6.17;;;3.40;;
15595;SDS011;7898;48.658;9.068;2024-03-25T07:34:52;6.13;;;3.87;;
15595;SDS011;7898;48.658;9.068;2024-03-25T07:37:18;5.73;;;3.80;;
15595;SDS011;7898;48.658;9.068;2024-03-25T07:39:45;6.93;;;4.23;;
15595;SDS011;7898;48.658;9.068;2024-03-25T07:42:11;5.67;;;3.77;;
15595;SDS011;7898;48.658;9.068;2024-03-25T07:44:37;7.77;;;4.20;;
15595;SDS011;7898;48.658;9.068;2024-03-25T07:47:03;5.70;;;3.50;;
15595;SDS011;7898;48.658;9.068;2024-03-25T07:49:30;6.53;;;3.67;;
15595;SDS011;7898;48.658;9.068;2024-03-25T07:51:57;7.87;;;3.50;;
15595;SDS011;7898;48.658;9.068;2024-03-25T07:54:23;3.70;;;2.87;;
15595;SDS011;7898;48.658;9.068;2024-03-25T07:56:49;4.88;;;3.17;;
15595;SDS011;7898;48.658;9.068;2024-03-25T07:59:15;5.93;;;3.28;;
15595;SDS011;7898;48.658;9.068;2024-03-25T08:01:41;9.18;;;3.53;;
15595;SDS011;7898;48.658;9.068;2024-03-25T08:04:07;5.70;;;3.50;;
15595;SDS011;7898;48.658;9.068;2024-03-25T08:06:33;4.22;;;3.10;;
15595;SDS011;7898;48.658;9.068;2024-03-25T08:09:00;5.50;;;3.60;;
15595;SDS011;7898;48.658;9.068;2024-03-25T08:11:28;7.22;;;3.47;;
15595;SDS011;7898;48.658;9.068;2024-03-25T08:13:54;5.00;;;2.88;;
15595;SDS011;7898;48.658;9.068;2024-03-25T08:16:20;5.57;;;3.28;;
15595;SDS011;7898;48.658;9.068;2024-03-25T08:18:46;5.50;;;3.08;;
15595;SDS011;7898;48.658;9.068;2024-03-25T08:21:12;5.40;;;3.05;;
15595;SDS011;7898;48.658;9.068;2024-03-25T08:23:38;4.82;;;3.20;;
15595;SDS011;7898;48.658;9.068;2024-03-25T08:26:05;3.83;;;2.92;;
15595;SDS011;7898;48.658;9.068;2024-03-25T08:28:31;8.88;;;3.00;;
15595;SDS011;7898;48.658;9.068;2024-03-25T08:30:57;3.53;;;2.40;;
15595;SDS011;7898;48.658;9.068;2024-03-25T08:33:23;5.03;;;2.72;;
15595;SDS011;7898;48.658;9.068;2024-03-25T08:35:49;6.07;;;3.20;;
15595;SDS011;7898;48.658;9.068;2024-03-25T08:38:16;4.50;;;2.85;;
15595;SDS011;7898;48.658;9.068;2024-03-25T08:40:41;4.57;;;3.05;;
15595;SDS011;7898;48.658;9.068;2024-03-25T08:43:09;2.72;;;2.22;;
15595;SDS011;7898;48.658;9.068;2024-03-25T08:45:35;4.50;;;2.72;;
15595;SDS011;7898;48.658;9.068;2024-03-25T08:48:01;4.93;;;2.60;;
15595;SDS011;7898;48.658;9.068;2024-03-25T08:50:27;3.35;;;2.13;;
15595;SDS011;7898;48.658;9.068;2024-03-25T08:52:53;6.13;;;3.10;;
15595;SDS011;7898;48.658;9.068;2024-03-25T08:55:19;4.18;;;2.50;;
15595;SDS011;7898;48.658;9.068;2024-03-25T08:57:45;3.22;;;2.42;;
15595;SDS011;7898;48.658;9.068;2024-03-25T09:00:13;3.45;;;2.72;;
15595;SDS011;7898;48.658;9.068;2024-03-25T09:02:39;5.20;;;2.97;;
15595;SDS011;7898;48.658;9.068;2024-03-25T09:05:06;5.57;;;2.70;;
15595;SDS011;7898;48.658;9.068;2024-03-25T09:07:32;5.07;;;2.95;;
15595;SDS011;7898;48.658;9.068;2024-03-25T09:09:58;5.20;;;2.60;;
15595;SDS011;7898;48.658;9.068;2024-03-25T09:12:42;6.15;;;2.88;;
15595;SDS011;7898;48.658;9.068;2024-03-25T09:15:08;4.18;;;2.58;;
15595;SDS011;7898;48.658;9.068;2024-03-25T09:17:36;5.15;;;2.90;;
15595;SDS011;7898;48.658;9.068;2024-03-25T09:20:02;4.22;;;2.60;;
15595;SDS011;7898;48.658;9.068;2024-03-25T09:22:28;6.53;;;2.45;;
15595;SDS011;7898;48.658;9.068;2024-03-25T09:24:54;6.60;;;2.92;;
15595;SDS011;7898;48.658;9.068;2024-03-25T09:27:20;7.43;;;2.95;;
15595;SDS011;7898;48.658;9.068;2024-03-25T09:29:46;3.13;;;2.83;;
15595;SDS011;7898;48.658;9.068;2024-03-25T09:32:12;8.00;;;2.95;;
15595;SDS011;7898;48.658;9.068;2024-03-25T09:34:39;5.00;;;2.70;;
15595;SDS011;7898;48.658;9.068;2024-03-25T09:37:05;3.67;;;2.42;;
15595;SDS011;7898;48.658;9.068;2024-03-25T09:39:31;6.85;;;3.05;;
15595;SDS011;7898;48.658;9.068;2024-03-25T09:41:57;5.25;;;2.67;;
15595;SDS011;7898;48.658;9.068;2024-03-25T09:44:26;3.72;;;2.55;;
15595;SDS011;7898;48.658;9.068;2024-03-25T09:46:56;3.42;;;2.35;;
15595;SDS011;7898;48.658;9.068;2024-03-25T09:49:22;3.75;;;2.50;;
15595;SDS011;7898;48.658;9.068;2024-03-25T09:51:52;4.75;;;2.40;;
15595;SDS011;7898;48.658;9.068;2024-03-25T09:54:18;3.67;;;2.28;;
15595;SDS011;7898;48.658;9.068;2024-03-25T09:56:44;4.22;;;2.47;;
15595;SDS011;7898;48.658;9.068;2024-03-25T09:59:10;5.10;;;2.67;;
15595;SDS011;7898;48.658;9.068;2024-03-25T10:01:37;5.82;;;2.63;;
15595;SDS011;7898;48.658;9.068;2024-03-25T10:04:04;5.57;;;2.50;;
15595;SDS011;7898;48.658;9.068;2024-03-25T10:06:29;6.22;;;2.42;;
15595;SDS011;7898;48.658;9.068;2024-03-25T10:08:58;2.88;;;2.25;;
15595;SDS011;7898;48.658;9.068;2024-03-25T10:11:24;4.60;;;2.63;;
15595;SDS011;7898;48.658;9.068;2024-03-25T10:13:50;4.55;;;3.10;;
15595;SDS011;7898;48.658;9.068;2024-03-25T10:16:16;2.50;;;2.30;;
15595;SDS011;7898;48.658;9.068;2024-03-25T10:18:42;3.78;;;2.30;;
15595;SDS011;7898;48.658;9.068;2024-03-25T10:21:09;5.68;;;2.72;;
15595;SDS011;7898;48.658;9.068;2024-03-25T10:23:36;3.70;;;2.50;;
15595;SDS011;7898;48.658;9.068;2024-03-25T10:26:06;2.85;;;2.10;;
15595;SDS011;7898;48.658;9.068;2024-03-25T10:28:32;5.72;;;2.53;;
15595;SDS011;7898;48.658;9.068;2024-03-25T10:31:02;3.22;;;2.10;;
15595;SDS011;7898;48.658;9.068;2024-03-25T10:33:29;2.67;;;1.90;;
15595;SDS011;7898;48.658;9.068;2024-03-25T10:35:55;4.40;;;1.92;;
15595;SDS011;7898;48.658;9.068;2024-03-25T10:38:24;3.33;;;1.80;;
15595;SDS011;7898;48.658;9.068;2024-03-25T10:40:51;2.85;;;1.92;;
15595;SDS011;7898;48.658;9.068;2024-03-25T10:43:21;5.32;;;1.70;;
15595;SDS011;7898;48.658;9.068;2024-03-25T10:45:51;2.80;;;1.70;;
15595;SDS011;7898;48.658;9.068;2024-03-25T10:48:21;2.38;;;1.98;;
15595;SDS011;7898;48.658;9.068;2024-03-25T10:50:52;5.22;;;2.10;;
15595;SDS011;7898;48.658;9.068;2024-03-25T10:53:20;3.00;;;1.65;;
15595;SDS011;7898;48.658;9.068;2024-03-25T10:55:48;4.32;;;1.95;;
15595;SDS011;7898;48.658;9.068;2024-03-25T10:58:16;2.65;;;2.00;;
15595;SDS011;7898;48.658;9.068;2024-03-25T11:00:47;3.03;;;1.88;;
15595;SDS011;7898;48.658;9.068;2024-03-25T11:03:14;2.40;;;1.90;;
15595;SDS011;7898;48.658;9.068;2024-03-25T11:05:40;3.15;;;2.00;;
15595;SDS011;7898;48.658;9.068;2024-03-25T11:08:10;7.65;;;1.90;;
15595;SDS011;7898;48.658;9.068;2024-03-25T11:10:39;1.83;;;1.63;;
15595;SDS011;7898;48.658;9.068;2024-03-25T11:13:09;3.60;;;1.70;;
15595;SDS011;7898;48.658;9.068;2024-03-25T11:15:36;3.95;;;1.77;;
15595;SDS011;7898;48.658;9.068;2024-03-25T11:18:04;4.40;;;2.03;;
15595;SDS011;7898;48.658;9.068;2024-03-25T11:20:35;3.45;;;2.10;;
15595;SDS011;7898;48.658;9.068;2024-03-25T11:23:07;3.00;;;1.77;;
15595;SDS011;7898;48.658;9.068;2024-03-25T11:25:34;3.47;;;1.95;;
15595;SDS011;7898;48.658;9.068;2024-03-25T11:28:00;5.32;;;2.10;;
15595;SDS011;7898;48.658;9.068;2024-03-25T11:30:26;4.43;;;2.10;;
15595;SDS011;7898;48.658;9.068;2024-03-25T11:32:53;4.78;;;1.95;;
15595;SDS011;7898;48.658;9.068;2024-03-25T11:35:21;2.75;;;2.10;;
15595;SDS011;7898;48.658;9.068;2024-03-25T11:37:48;3.65;;;2.15;;
15595;SDS011;7898;48.658;9.068;2024-03-25T11:40:14;6.43;;;2.53;;
15595;SDS011;7898;48.658;9.068;2024-03-25T11:42:40;2.65;;;2.05;;
15595;SDS011;7898;48.658;9.068;2024-03-25T11:45:09;3.78;;;1.85;;
15595;SDS011;7898;48.658;9.068;2024-03-25T11:47:40;4.53;;;1.55;;
15595;SDS011;7898;48.658;9.068;2024-03-25T11:50:07;2.35;;;1.90;;
15595;SDS011;7898;48.658;9.068;2024-03-25T11:52:36;2.95;;;2.08;;
15595;SDS011;7898;48.658;9.068;2024-03-25T11:55:02;3.30;;;2.03;;
15595;SDS011;7898;48.658;9.068;2024-03-25T11:57:28;3.42;;;2.30;;
15595;SDS011;7898;48.658;9.068;2024-03-25T11:59:54;3.38;;;2.05;;
15595;SDS011;7898;48.658;9.068;2024-03-25T12:02:20;5.65;;;2.20;;
15595;SDS011;7898;48.658;9.068;2024-03-25T12:04:47;5.13;;;2.22;;
15595;SDS011;7898;48.658;9.068;2024-03-25T12:07:13;3.03;;;2.33;;
15595;SDS011;7898;48.658;9.068;2024-03-25T12:09:41;5.15;;;2.30;;
15595;SDS011;7898;48.658;9.068;2024-03-25T12:12:25;5.13;;;2.30;;
15595;SDS011;7898;48.658;9.068;2024-03-25T12:14:51;4.57;;;2.20;;
15595;SDS011;7898;48.658;9.068;2024-03-25T12:17:18;3.30;;;2.20;;
15595;SDS011;7898;48.658;9.068;2024-03-25T12:19:45;2.90;;;2.08;;
15595;SDS011;7898;48.658;9.068;2024-03-25T12:22:24;5.40;;;2.25;;
15595;SDS011;7898;48.658;9.068;2024-03-25T12:24:52;3.67;;;2.38;;
15595;SDS011;7898;48.658;9.068;2024-03-25T12:27:22;3.25;;;2.15;;
15595;SDS011;7898;48.658;9.068;2024-03-25T12:29:56;4.32;;;2.60;;
15595;SDS011;7898;48.658;9.068;2024-03-25T12:32:30;7.20;;;2.38;;
15595;SDS011;7898;48.658;9.068;2024-03-25T12:34:57;3.60;;;2.22;;
15595;SDS011;7898;48.658;9.068;2024-03-25T12:37:23;2.97;;;2.25;;
15595;SDS011;7898;48.658;9.068;2024-03-25T12:39:52;3.33;;;2.03;;
15595;SDS011;7898;48.658;9.068;2024-03-25T12:42:18;2.73;;;2.03;;
15595;SDS011;7898;48.658;9.068;2024-03-25T12:44:44;3.17;;;2.00;;
15595;SDS011;7898;48.658;9.068;2024-03-25T12:47:11;4.32;;;2.63;;
15595;SDS011;7898;48.658;9.068;2024-03-25T12:49:36;3.13;;;2.10;;
15595;SDS011;7898;48.658;9.068;2024-03-25T12:52:04;3.92;;;2.15;;
15595;SDS011;7898;48.658;9.068;2024-03-25T12:54:31;3.08;;;1.95;;
15595;SDS011;7898;48.658;9.068;2024-03-25T12:56:59;4.43;;;1.77;;
15595;SDS011;7898;48.658;9.068;2024-03-25T12:59:25;4.28;;;2.10;;
15595;SDS011;7898;48.658;9.068;2024-03-25T13:01:51;2.10;;;1.60;;
15595;SDS011;7898;48.658;9.068;2024-03-25T13:04:17;3.78;;;1.70;;
15595;SDS011;7898;48.658;9.068;2024-03-25T13:06:43;3.42;;;1.85;;
15595;SDS011;7898;48.658;9.068;2024-03-25T13:09:09;1.92;;;1.55;;
15595;SDS011;7898;48.658;9.068;2024-03-25T13:11:35;2.90;;;1.75;;
15595;SDS011;7898;48.658;9.068;2024-03-25T13:16:31;1.95;;;1.48;;
15595;SDS011;7898;48.658;9.068;2024-03-25T13:18:57;2.22;;;1.83;;
15595;SDS011;7898;48.658;9.068;2024-03-25T13:21:24;3.80;;;1.92;;
15595;SDS011;7898;48.658;9.068;2024-03-25T13:23:50;3.78;;;2.05;;
15595;SDS011;7898;48.658;9.068;2024-03-25T13:26:16;2.30;;;1.73;;
15595;SDS011;7898;48.658;9.068;2024-03-25T13:28:42;4.40;;;1.83;;
15595;SDS011;7898;48.658;9.068;2024-03-25T13:31:09;3.67;;;2.10;;
15595;SDS011;7898;48.658;9.068;2024-03-25T13:33:35;7.05;;;2.13;;
15595;SDS011;7898;48.658;9.068;2024-03-25T13:36:01;3.60;;;2.17;;
15595;SDS011;7898;48.658;9.068;2024-03-25T13:38:27;3.78;;;1.92;;
15595;SDS011;7898;48.658;9.068;2024-03-25T13:40:57;2.17;;;1.80;;
15595;SDS011;7898;48.658;9.068;2024-03-25T13:43:23;2.63;;;1.85;;
15595;SDS011;7898;48.658;9.068;2024-03-25T13:45:49;3.95;;;2.20;;
15595;SDS011;7898;48.658;9.068;2024-03-25T13:48:16;3.42;;;2.28;;
15595;SDS011;7898;48.658;9.068;2024-03-25T13:50:42;2.00;;;1.80;;
15595;SDS011;7898;48.658;9.068;2024-03-25T13:53:08;3.95;;;2.03;;
15595;SDS011;7898;48.658;9.068;2024-03-25T13:55:35;3.88;;;1.83;;
15595;SDS011;7898;48.658;9.068;2024-03-25T13:58:01;3.38;;;1.83;;
15595;SDS011;7898;48.658;9.068;2024-03-25T14:00:27;3.13;;;1.83;;
15595;SDS011;7898;48.658;9.068;2024-03-25T14:02:53;2.85;;;1.88;;
15595;SDS011;7898;48.658;9.068;2024-03-25T14:05:20;4.32;;;1.88;;
15595;SDS011;7898;48.658;9.068;2024-03-25T14:07:47;2.15;;;1.77;;
15595;SDS011;7898;48.658;9.068;2024-03-25T14:10:13;8.45;;;5.18;;
15595;SDS011;7898;48.658;9.068;2024-03-25T14:12:38;4.55;;;2.42;;
15595;SDS011;7898;48.658;9.068;2024-03-25T14:15:05;4.28;;;2.45;;
15595;SDS011;7898;48.658;9.068;2024-03-25T14:17:31;2.83;;;2.00;;
15595;SDS011;7898;48.658;9.068;2024-03-25T14:19:57;8.25;;;2.28;;
15595;SDS011;7898;48.658;9.068;2024-03-25T14:22:25;4.18;;;2.33;;
15595;SDS011;7898;48.658;9.068;2024-03-25T14:24:51;4.57;;;1.90;;
15595;SDS011;7898;48.658;9.068;2024-03-25T14:27:17;3.22;;;2.00;;
15595;SDS011;7898;48.658;9.068;2024-03-25T14:29:43;3.45;;;1.70;;
15595;SDS011;7898;48.658;9.068;2024-03-25T14:32:09;4.93;;;1.73;;
15595;SDS011;7898;48.658;9.068;2024-03-25T14:34:35;2.42;;;2.03;;
15595;SDS011;7898;48.658;9.068;2024-03-25T14:37:01;4.18;;;2.33;;
15595;SDS011;7898;48.658;9.068;2024-03-25T14:39:28;3.83;;;2.40;;
15595;SDS011;7898;48.658;9.068;2024-03-25T14:41:54;2.75;;;1.70;;
15595;SDS011;7898;48.658;9.068;2024-03-25T14:44:20;2.95;;;1.75;;
15595;SDS011;7898;48.658;9.068;2024-03-25T14:46:46;3.10;;;1.80;;
15595;SDS011;7898;48.658;9.068;2024-03-25T14:49:12;2.78;;;1.95;;
15595;SDS011;7898;48.658;9.068;2024-03-25T14:51:38;3.33;;;2.05;;
15595;SDS011;7898;48.658;9.068;2024-03-25T14:54:04;5.50;;;2.42;;
15595;SDS011;7898;48.658;9.068;2024-03-25T14:56:32;3.63;;;2.15;;
15595;SDS011;7898;48.658;9.068;2024-03-25T14:58:58;3.60;;;2.30;;
15595;SDS011;7898;48.658;9.068;2024-03-25T15:01:24;2.95;;;1.85;;